createdAt,value
2023-11-22T00:01:52.945Z,7.81
2023-11-22T00:04:19.502Z,7.77
2023-11-22T00:06:46.016Z,7.78
2023-11-22T00:09:12.742Z,7.71
2023-11-22T00:11:39.213Z,7.75
2023-11-22T00:14:06.019Z,7.74
2023-11-22T00:16:33.058Z,7.72
2023-11-22T00:18:59.558Z,7.73
2023-11-22T00:21:26.400Z,7.66
2023-11-22T00:23:52.844Z,7.61
2023-11-22T00:26:19.481Z,7.60
2023-11-22T00:28:46.049Z,7.57
2023-11-22T00:31:15.875Z,7.57
2023-11-22T00:33:42.652Z,7.52
2023-11-22T00:36:09.271Z,7.47
2023-11-22T00:38:37.218Z,7.41
2023-11-22T00:41:03.890Z,7.39
2023-11-22T00:43:30.459Z,7.33
2023-11-22T00:45:58.215Z,7.31
2023-11-22T00:48:24.722Z,7.26
2023-11-22T00:50:51.950Z,7.23
2023-11-22T00:53:19.553Z,7.15
2023-11-22T00:55:46.113Z,7.11
2023-11-22T00:58:13.022Z,7.06
2023-11-22T01:00:39.462Z,7.01
2023-11-22T01:03:06.524Z,6.95
2023-11-22T01:05:33.219Z,6.89
2023-11-22T01:07:59.817Z,6.86
2023-11-22T01:10:26.306Z,6.80
2023-11-22T01:12:52.810Z,6.74
2023-11-22T01:15:19.381Z,6.68
2023-11-22T01:17:46.567Z,6.64
2023-11-22T01:20:13.982Z,6.59
2023-11-22T01:22:40.652Z,6.56
2023-11-22T01:25:07.422Z,6.52
2023-11-22T01:27:33.914Z,6.51
2023-11-22T01:30:00.384Z,6.47
2023-11-22T01:32:26.838Z,6.42
2023-11-22T01:34:53.269Z,6.40
2023-11-22T01:37:19.691Z,6.34
2023-11-22T01:39:46.201Z,6.28
2023-11-22T01:42:12.695Z,6.28
2023-11-22T01:44:39.152Z,6.25
2023-11-22T01:47:06.075Z,6.23
2023-11-22T01:49:32.864Z,6.17
2023-11-22T01:51:59.467Z,6.16
2023-11-22T01:54:26.158Z,6.13
2023-11-22T01:56:52.715Z,6.10
2023-11-22T01:59:19.347Z,6.09
2023-11-22T02:01:46.207Z,6.06
2023-11-22T02:04:15.870Z,6.02
2023-11-22T02:06:42.741Z,5.98
2023-11-22T02:09:14.464Z,5.95
2023-11-22T02:11:43.144Z,5.94
2023-11-22T02:14:10.245Z,5.88
2023-11-22T02:16:38.082Z,5.86
2023-11-22T02:19:06.223Z,5.85
2023-11-22T02:21:32.644Z,5.80
2023-11-22T02:23:59.120Z,5.77
2023-11-22T02:26:26.010Z,5.73
2023-11-22T02:28:52.524Z,5.71
2023-11-22T02:31:19.146Z,5.65
2023-11-22T02:33:45.568Z,5.56
2023-11-22T02:36:13.862Z,5.58
2023-11-22T02:38:41.568Z,5.55
2023-11-22T02:41:08.101Z,5.53
2023-11-22T02:43:34.591Z,5.49
2023-11-22T02:46:01.101Z,5.48
2023-11-22T02:48:27.602Z,5.43
2023-11-22T02:50:55.349Z,5.41
2023-11-22T02:53:22.602Z,5.40
2023-11-22T02:55:49.937Z,5.41
2023-11-22T02:58:17.415Z,5.40
2023-11-22T03:00:44.677Z,5.39
2023-11-22T03:03:12.736Z,5.38
2023-11-22T03:05:39.317Z,5.37
2023-11-22T03:08:08.296Z,5.37
2023-11-22T03:10:34.971Z,5.37
2023-11-22T03:13:01.432Z,5.37
2023-11-22T03:15:28.015Z,5.37
2023-11-22T03:17:55.515Z,5.35
2023-11-22T03:20:22.449Z,5.36
2023-11-22T03:22:51.598Z,5.34
2023-11-22T03:25:18.962Z,5.32
2023-11-22T03:27:45.480Z,5.31
2023-11-22T03:30:13.145Z,5.28
2023-11-22T03:32:40.776Z,5.30
2023-11-22T03:35:08.717Z,5.27
2023-11-22T03:37:35.681Z,5.27
2023-11-22T03:40:02.334Z,5.28
2023-11-22T03:42:29.023Z,5.26
2023-11-22T03:44:55.743Z,5.27
2023-11-22T03:47:22.494Z,5.24
2023-11-22T03:49:48.974Z,5.21
2023-11-22T03:52:15.491Z,5.27
2023-11-22T03:54:41.963Z,5.28
2023-11-22T03:57:08.494Z,5.28
2023-11-22T03:59:35.869Z,5.29
2023-11-22T04:02:02.386Z,5.26
2023-11-22T04:04:28.899Z,5.29
2023-11-22T04:06:55.458Z,5.32
2023-11-22T04:09:21.951Z,5.32
2023-11-22T04:11:48.566Z,5.32
2023-11-22T04:14:15.274Z,5.32
2023-11-22T04:16:42.131Z,5.32
2023-11-22T04:19:08.945Z,5.32
2023-11-22T04:21:35.761Z,5.30
2023-11-22T04:24:02.330Z,5.30
2023-11-22T04:26:28.810Z,5.28
2023-11-22T04:28:55.544Z,5.30
2023-11-22T04:31:22.067Z,5.29
2023-11-22T04:33:48.726Z,5.28
2023-11-22T04:36:15.217Z,5.22
2023-11-22T04:38:41.679Z,5.29
2023-11-22T04:41:08.874Z,5.32
2023-11-22T04:43:35.368Z,5.28
2023-11-22T04:46:01.864Z,5.30
2023-11-22T04:48:28.495Z,5.29
2023-11-22T04:50:54.978Z,5.31
2023-11-22T04:53:21.522Z,5.31
2023-11-22T04:55:47.986Z,5.32
2023-11-22T04:58:14.413Z,5.32
2023-11-22T05:00:40.917Z,5.32
2023-11-22T05:03:07.689Z,5.30
2023-11-22T05:05:34.377Z,5.32
2023-11-22T05:08:00.933Z,5.32
2023-11-22T05:10:27.457Z,5.34
2023-11-22T05:12:53.986Z,5.38
2023-11-22T05:15:20.651Z,5.32
2023-11-22T05:17:47.304Z,5.34
2023-11-22T05:20:13.827Z,5.36
2023-11-22T05:22:40.319Z,5.34
2023-11-22T05:25:08.206Z,5.34
2023-11-22T05:27:34.841Z,5.37
2023-11-22T05:30:02.113Z,5.34
2023-11-22T05:32:30.317Z,5.33
2023-11-22T05:34:56.961Z,5.34
2023-11-22T05:37:24.952Z,5.38
2023-11-22T05:39:52.216Z,5.37
2023-11-22T05:42:19.157Z,5.43
2023-11-22T05:44:45.713Z,5.42
2023-11-22T05:47:14.137Z,5.37
2023-11-22T05:49:40.749Z,5.37
2023-11-22T05:52:07.275Z,5.36
2023-11-22T05:54:33.742Z,5.40
2023-11-22T05:57:00.207Z,5.41
2023-11-22T05:59:26.864Z,5.41
2023-11-22T06:01:53.390Z,5.41
2023-11-22T06:04:20.330Z,5.44
2023-11-22T06:06:50.042Z,5.46
2023-11-22T06:09:16.640Z,5.46
2023-11-22T06:11:43.259Z,5.41
2023-11-22T06:14:09.838Z,5.45
2023-11-22T06:16:36.485Z,5.45
2023-11-22T06:19:02.982Z,5.47
2023-11-22T06:21:29.609Z,5.48
2023-11-22T06:23:59.654Z,5.48
2023-11-22T06:26:26.509Z,5.47
2023-11-22T06:28:53.024Z,5.41
2023-11-22T06:31:20.006Z,5.40
2023-11-22T06:33:46.631Z,5.42
2023-11-22T06:36:15.366Z,5.37
2023-11-22T06:38:41.988Z,5.29
2023-11-22T06:41:08.445Z,5.28
2023-11-22T06:43:34.957Z,5.32
2023-11-22T06:46:02.254Z,5.34
2023-11-22T06:48:42.713Z,5.10
2023-11-22T06:51:09.182Z,5.29
2023-11-22T06:53:35.806Z,5.28
2023-11-22T06:56:02.814Z,5.19
2023-11-22T06:58:29.223Z,5.14
2023-11-22T07:00:56.330Z,5.15
2023-11-22T07:03:23.013Z,5.20
2023-11-22T07:05:49.679Z,5.24
2023-11-22T07:08:19.796Z,5.24
2023-11-22T07:10:46.473Z,5.22
2023-11-22T07:13:13.903Z,5.25
2023-11-22T07:15:41.952Z,5.29
2023-11-22T07:18:11.043Z,5.28
2023-11-22T07:20:38.265Z,5.25
2023-11-22T07:23:04.805Z,5.23
2023-11-22T07:25:32.642Z,5.18
2023-11-22T07:28:00.345Z,5.22
2023-11-22T07:30:31.753Z,5.20
2023-11-22T07:33:00.413Z,5.23
2023-11-22T07:35:29.382Z,5.23
2023-11-22T07:37:56.124Z,5.17
2023-11-22T07:40:23.581Z,5.19
2023-11-22T07:42:50.513Z,5.15
2023-11-22T07:45:18.119Z,5.10
2023-11-22T07:47:45.140Z,5.11
2023-11-22T07:50:15.040Z,5.08
2023-11-22T07:52:42.802Z,5.12
2023-11-22T07:55:10.877Z,5.10
2023-11-22T07:57:40.319Z,5.11
2023-11-22T08:00:08.679Z,5.12
2023-11-22T08:02:37.920Z,5.18
2023-11-22T08:05:09.443Z,5.16
2023-11-22T08:07:39.812Z,5.19
2023-11-22T08:10:10.850Z,5.24
2023-11-22T08:12:40.222Z,5.31
2023-11-22T08:15:06.941Z,5.34
2023-11-22T08:17:33.646Z,5.39
2023-11-22T08:20:01.291Z,5.46
2023-11-22T08:22:30.098Z,5.54
2023-11-22T08:24:58.465Z,5.58
2023-11-22T08:27:24.949Z,5.67
2023-11-22T08:29:51.697Z,5.70
2023-11-22T08:32:19.959Z,5.71
2023-11-22T08:34:46.701Z,5.72
2023-11-22T08:37:13.139Z,5.75
2023-11-22T08:39:40.312Z,5.73
2023-11-22T08:42:10.453Z,5.78
2023-11-22T08:44:37.764Z,5.78
2023-11-22T08:47:04.574Z,5.86
2023-11-22T08:49:31.342Z,5.79
2023-11-22T08:51:58.031Z,5.76
2023-11-22T08:54:24.559Z,5.90
2023-11-22T08:56:51.148Z,5.88
2023-11-22T08:59:17.795Z,5.93
2023-11-22T09:01:46.586Z,5.92
2023-11-22T09:04:13.050Z,6.05
2023-11-22T09:06:39.542Z,6.15
2023-11-22T09:09:06.462Z,6.18
2023-11-22T09:11:35.686Z,6.21
2023-11-22T09:14:05.950Z,6.20
2023-11-22T09:16:40.073Z,6.16
2023-11-22T09:19:09.650Z,6.19
2023-11-22T09:21:36.241Z,6.21
2023-11-22T09:24:03.396Z,6.19
2023-11-22T09:26:30.642Z,6.13
2023-11-22T09:28:59.949Z,6.16
2023-11-22T09:31:27.522Z,6.20
2023-11-22T09:33:54.139Z,6.27
2023-11-22T09:36:20.643Z,6.31
2023-11-22T09:38:48.260Z,6.34
2023-11-22T09:41:17.191Z,6.40
2023-11-22T09:43:45.165Z,6.43
2023-11-22T09:46:13.094Z,6.35
2023-11-22T09:48:40.900Z,6.29
2023-11-22T09:51:18.987Z,6.31
2023-11-22T09:53:52.910Z,6.36
2023-11-22T09:56:19.939Z,6.30
2023-11-22T09:58:46.515Z,6.34
2023-11-22T10:01:14.619Z,6.38
2023-11-22T10:03:41.572Z,6.32
2023-11-22T10:06:08.493Z,6.43
2023-11-22T10:08:37.045Z,6.48
2023-11-22T10:11:05.387Z,6.48
2023-11-22T10:13:32.129Z,6.43
2023-11-22T10:16:13.390Z,6.49
2023-11-22T10:18:42.919Z,6.46
2023-11-22T10:21:23.953Z,6.50
2023-11-22T10:23:52.861Z,6.56
2023-11-22T10:26:19.819Z,6.62
2023-11-22T10:28:46.384Z,6.72
2023-11-22T10:31:12.941Z,6.77
2023-11-22T10:33:43.567Z,6.79
2023-11-22T10:36:10.633Z,6.81
2023-11-22T10:38:37.413Z,6.80
2023-11-22T10:41:08.806Z,6.88
2023-11-22T10:43:39.262Z,6.89
2023-11-22T10:46:06.227Z,6.90
2023-11-22T10:48:36.840Z,6.90
2023-11-22T10:51:07.328Z,6.81
2023-11-22T10:53:35.764Z,6.88
2023-11-22T10:56:12.912Z,6.90
2023-11-22T10:58:48.990Z,7.01
2023-11-22T11:01:23.409Z,7.14
2023-11-22T11:04:07.922Z,7.27
2023-11-22T11:06:35.641Z,7.38
2023-11-22T11:09:06.704Z,7.40
2023-11-22T11:11:34.977Z,7.32
2023-11-22T11:14:03.142Z,7.33
2023-11-22T11:16:32.396Z,7.29
2023-11-22T11:18:59.610Z,7.16
2023-11-22T11:21:26.808Z,7.09
2023-11-22T11:23:57.831Z,7.14
2023-11-22T11:26:27.007Z,7.16
2023-11-22T11:28:56.283Z,7.24
2023-11-22T11:31:23.839Z,7.28
2023-11-22T11:33:50.914Z,7.36
2023-11-22T11:36:32.814Z,7.34
2023-11-22T11:39:04.891Z,7.40
2023-11-22T11:41:34.796Z,7.47
2023-11-22T11:44:05.562Z,7.44
2023-11-22T11:46:32.513Z,7.44
2023-11-22T11:48:59.124Z,7.40
2023-11-22T11:51:28.028Z,7.48
2023-11-22T11:53:55.529Z,7.57
2023-11-22T11:56:22.249Z,7.64
2023-11-22T11:58:53.434Z,7.55
2023-11-22T12:01:23.822Z,7.52
2023-11-22T12:03:52.204Z,7.57
2023-11-22T12:06:21.148Z,7.55
2023-11-22T12:08:48.528Z,7.50
2023-11-22T12:11:17.334Z,7.58
2023-11-22T12:13:51.788Z,7.60
2023-11-22T12:16:19.445Z,7.61
2023-11-22T12:18:49.280Z,7.62
2023-11-22T12:21:17.398Z,7.67
2023-11-22T12:23:45.055Z,7.69
2023-11-22T12:26:21.606Z,7.65
2023-11-22T12:29:00.109Z,7.65
2023-11-22T12:31:36.099Z,7.66
2023-11-22T12:34:03.861Z,7.68
2023-11-22T12:36:30.524Z,7.72
2023-11-22T12:38:59.403Z,7.73
2023-11-22T12:41:27.956Z,7.71
2023-11-22T12:44:05.546Z,7.66
2023-11-22T12:46:56.859Z,7.57
2023-11-22T12:49:24.393Z,7.56
2023-11-22T12:51:52.265Z,7.59
2023-11-22T12:54:21.663Z,7.61
2023-11-22T12:56:59.513Z,7.60
2023-11-22T12:59:31.411Z,7.64
2023-11-22T13:01:58.925Z,7.66
2023-11-22T13:04:25.697Z,7.63
2023-11-22T13:06:52.881Z,7.65
2023-11-22T13:09:19.372Z,7.64
2023-11-22T13:11:46.837Z,7.61
2023-11-22T13:14:16.443Z,7.64
2023-11-22T13:16:43.909Z,7.60
2023-11-22T13:19:11.511Z,7.60
2023-11-22T13:21:38.019Z,7.59
2023-11-22T13:24:06.125Z,7.57
2023-11-22T13:26:32.697Z,7.61
2023-11-22T13:29:00.106Z,7.51
2023-11-22T13:31:26.657Z,7.61
2023-11-22T13:33:53.157Z,7.60
2023-11-22T13:36:19.627Z,7.59
2023-11-22T13:38:46.128Z,7.59
2023-11-22T13:41:12.640Z,7.61
2023-11-22T13:43:40.700Z,7.64
2023-11-22T13:46:11.163Z,7.62
2023-11-22T13:48:37.747Z,7.63
2023-11-22T13:51:07.159Z,7.63
2023-11-22T13:53:37.760Z,7.60
2023-11-22T13:56:09.930Z,7.62
2023-11-22T13:58:37.046Z,7.59
2023-11-22T14:01:07.248Z,7.61
2023-11-22T14:03:34.581Z,7.60
2023-11-22T14:06:02.023Z,7.58
2023-11-22T14:08:28.757Z,7.55
2023-11-22T14:10:55.478Z,7.54
2023-11-22T14:13:22.624Z,7.63
2023-11-22T14:15:49.674Z,7.60
2023-11-22T14:18:16.331Z,7.57
2023-11-22T14:20:42.865Z,7.56
2023-11-22T14:23:09.455Z,7.55
2023-11-22T14:25:36.087Z,7.51
2023-11-22T14:28:02.580Z,7.57
2023-11-22T14:30:31.808Z,7.57
2023-11-22T14:33:00.798Z,7.47
2023-11-22T14:35:28.880Z,7.55
2023-11-22T14:37:55.744Z,7.59
2023-11-22T14:40:22.659Z,7.53
2023-11-22T14:42:51.563Z,7.49
2023-11-22T14:45:20.865Z,7.46
2023-11-22T14:47:47.587Z,7.52
2023-11-22T14:50:16.846Z,7.46
2023-11-22T14:52:45.153Z,7.41
2023-11-22T14:55:13.727Z,7.44
2023-11-22T14:57:40.581Z,7.44
2023-11-22T15:00:10.991Z,7.44
2023-11-22T15:02:37.704Z,7.37
2023-11-22T15:05:05.869Z,7.45
2023-11-22T15:07:36.825Z,7.46
2023-11-22T15:10:03.359Z,7.48
2023-11-22T15:12:31.641Z,7.47
2023-11-22T15:14:58.227Z,7.37
2023-11-22T15:17:24.764Z,7.38
2023-11-22T15:19:51.426Z,7.37
2023-11-22T15:22:17.992Z,7.29
2023-11-22T15:24:45.582Z,7.35
2023-11-22T15:27:12.081Z,7.34
2023-11-22T15:29:38.569Z,7.37
2023-11-22T15:32:05.906Z,7.30
2023-11-22T15:34:32.459Z,7.37
2023-11-22T15:36:59.096Z,7.38
2023-11-22T15:39:25.703Z,7.42
2023-11-22T15:41:52.585Z,7.35
2023-11-22T15:44:19.070Z,7.33
2023-11-22T15:46:45.559Z,7.32
2023-11-22T15:49:12.074Z,7.24
2023-11-22T15:51:38.574Z,7.27
2023-11-22T15:54:05.481Z,7.25
2023-11-22T15:56:32.159Z,7.26
2023-11-22T15:59:01.879Z,7.23
2023-11-22T16:01:29.016Z,7.29
2023-11-22T16:03:55.791Z,7.24
2023-11-22T16:06:23.830Z,7.25
2023-11-22T16:08:50.610Z,7.16
2023-11-22T16:11:17.234Z,7.18
2023-11-22T16:13:45.582Z,7.11
2023-11-22T16:16:12.877Z,7.17
2023-11-22T16:18:40.148Z,7.16
2023-11-22T16:21:08.714Z,7.11
2023-11-22T16:23:36.432Z,7.11
2023-11-22T16:26:05.764Z,7.14
2023-11-22T16:28:37.013Z,7.05
2023-11-22T16:31:06.186Z,7.05
2023-11-22T16:33:34.964Z,7.07
2023-11-22T16:36:02.702Z,7.00
2023-11-22T16:38:29.201Z,7.05
2023-11-22T16:40:57.727Z,7.05
2023-11-22T16:43:24.172Z,7.15
2023-11-22T16:45:52.549Z,7.07
2023-11-22T16:48:19.247Z,7.18
2023-11-22T16:50:47.178Z,7.17
2023-11-22T16:53:15.999Z,7.13
2023-11-22T16:55:44.334Z,7.06
2023-11-22T16:58:11.831Z,7.07
2023-11-22T17:00:38.393Z,7.15
2023-11-22T17:03:05.066Z,7.14
2023-11-22T17:05:31.654Z,7.17
2023-11-22T17:07:58.318Z,7.08
2023-11-22T17:10:44.907Z,7.15
2023-11-22T17:13:12.374Z,7.14
2023-11-22T17:15:40.985Z,7.11
2023-11-22T17:18:08.277Z,7.12
2023-11-22T17:20:35.988Z,7.11
2023-11-22T17:23:02.482Z,7.14
2023-11-22T17:25:30.196Z,7.13
2023-11-22T17:27:59.681Z,7.19
2023-11-22T17:30:26.397Z,7.18
2023-11-22T17:32:53.519Z,7.24
2023-11-22T17:35:21.478Z,7.23
2023-11-22T17:37:48.469Z,7.17
2023-11-22T17:40:15.657Z,7.23
2023-11-22T17:42:42.200Z,7.24
2023-11-22T17:45:10.149Z,7.16
2023-11-22T17:47:37.295Z,7.23
2023-11-22T17:50:05.843Z,7.24
2023-11-22T17:52:32.815Z,7.26
2023-11-22T17:54:59.623Z,7.26
2023-11-22T17:57:26.147Z,7.31
2023-11-22T17:59:52.635Z,7.35
2023-11-22T18:02:19.136Z,7.37
2023-11-22T18:04:45.619Z,7.32
2023-11-22T18:07:15.409Z,7.35
2023-11-22T18:09:42.713Z,7.35
2023-11-22T18:12:11.680Z,7.26
2023-11-22T18:14:38.235Z,7.35
2023-11-22T18:17:04.737Z,7.35
2023-11-22T18:19:31.938Z,7.34
2023-11-22T18:21:59.163Z,7.35
2023-11-22T18:24:28.173Z,7.41
2023-11-22T18:26:55.850Z,7.36
2023-11-22T18:29:23.049Z,7.39
2023-11-22T18:31:51.195Z,7.39
2023-11-22T18:34:17.665Z,7.37
2023-11-22T18:36:44.131Z,7.39
2023-11-22T18:39:10.789Z,7.43
2023-11-22T18:41:39.871Z,7.44
2023-11-22T18:44:06.557Z,7.45
2023-11-22T18:46:33.014Z,7.50
2023-11-22T18:48:59.931Z,7.52
2023-11-22T18:51:26.383Z,7.54
2023-11-22T18:53:53.196Z,7.58
2023-11-22T18:56:19.786Z,7.61
2023-11-22T18:58:46.335Z,7.57
2023-11-22T19:01:12.844Z,7.61
2023-11-22T19:03:39.289Z,7.65
2023-11-22T19:06:07.990Z,7.64
2023-11-22T19:08:34.611Z,7.63
2023-11-22T19:11:01.172Z,7.67
2023-11-22T19:13:30.786Z,7.65
2023-11-22T19:15:59.422Z,7.72
2023-11-22T19:18:26.169Z,7.72
2023-11-22T19:20:55.059Z,7.73
2023-11-22T19:23:21.597Z,7.75
2023-11-22T19:25:48.352Z,7.71
2023-11-22T19:28:14.841Z,7.74
2023-11-22T19:30:41.400Z,7.76
2023-11-22T19:33:08.090Z,7.80
2023-11-22T19:35:36.114Z,7.76
2023-11-22T19:38:05.811Z,7.83
2023-11-22T19:40:33.087Z,7.84
2023-11-22T19:42:59.601Z,7.83
2023-11-22T19:45:26.029Z,7.84
2023-11-22T19:47:52.756Z,7.85
2023-11-22T19:50:21.187Z,7.84
2023-11-22T19:52:47.689Z,7.85
2023-11-22T19:55:14.749Z,7.81
2023-11-22T19:57:44.154Z,7.85
2023-11-22T20:00:11.597Z,7.82
2023-11-22T20:02:38.591Z,7.82
2023-11-22T20:05:05.707Z,7.88
2023-11-22T20:07:32.221Z,7.80
2023-11-22T20:10:01.588Z,7.88
2023-11-22T20:12:28.528Z,7.85
2023-11-22T20:14:55.866Z,7.87
2023-11-22T20:17:22.374Z,7.85
2023-11-22T20:19:49.689Z,7.90
2023-11-22T20:22:16.244Z,7.91
2023-11-22T20:24:43.060Z,7.86
2023-11-22T20:27:09.685Z,7.90
2023-11-22T20:29:36.947Z,7.91
2023-11-22T20:32:03.698Z,7.87
2023-11-22T20:34:31.082Z,7.91
2023-11-22T20:36:57.552Z,7.87
2023-11-22T20:39:24.194Z,7.91
2023-11-22T20:41:50.680Z,7.96
2023-11-22T20:44:17.801Z,7.99
2023-11-22T20:46:45.324Z,7.99
2023-11-22T20:49:12.678Z,8.02
2023-11-22T20:51:39.260Z,7.96
2023-11-22T20:54:05.803Z,8.07
2023-11-22T20:56:32.287Z,8.02
2023-11-22T20:58:58.739Z,8.01
2023-11-22T21:01:25.280Z,8.10
2023-11-22T21:03:51.998Z,8.04
2023-11-22T21:06:19.289Z,8.16
2023-11-22T21:08:46.700Z,8.15
2023-11-22T21:11:14.362Z,8.22
2023-11-22T21:13:41.213Z,8.25
2023-11-22T21:16:09.501Z,8.29
2023-11-22T21:18:38.158Z,8.31
2023-11-22T21:21:07.927Z,8.29
2023-11-22T21:23:34.534Z,8.36
2023-11-22T21:26:02.609Z,8.37
2023-11-22T21:28:29.066Z,8.41
2023-11-22T21:30:55.529Z,8.49
2023-11-22T21:33:22.071Z,8.49
2023-11-22T21:35:48.623Z,8.52
2023-11-22T21:38:15.231Z,8.57
2023-11-22T21:40:42.883Z,8.58
2023-11-22T21:43:09.476Z,8.51
2023-11-22T21:45:36.101Z,8.62
2023-11-22T21:48:03.488Z,8.66
2023-11-22T21:50:30.132Z,8.67
2023-11-22T21:52:56.618Z,8.67
2023-11-22T21:55:23.075Z,8.72
2023-11-22T21:57:49.588Z,8.75
2023-11-22T22:00:16.456Z,8.76
2023-11-22T22:02:43.153Z,8.76
2023-11-22T22:05:09.757Z,8.77
2023-11-22T22:07:36.310Z,8.76
2023-11-22T22:10:02.807Z,8.79
2023-11-22T22:12:29.234Z,8.78
2023-11-22T22:14:55.823Z,8.81
2023-11-22T22:17:22.360Z,8.83
2023-11-22T22:19:48.924Z,8.89
2023-11-22T22:22:15.700Z,8.91
2023-11-22T22:24:42.131Z,8.89
2023-11-22T22:27:08.622Z,8.92
2023-11-22T22:29:35.180Z,8.96
2023-11-22T22:32:01.683Z,8.98
2023-11-22T22:34:28.115Z,9.00
2023-11-22T22:36:57.631Z,9.02
2023-11-22T22:39:24.981Z,9.03
2023-11-22T22:41:52.030Z,9.06
2023-11-22T22:44:18.562Z,9.13
2023-11-22T22:46:45.384Z,9.19
2023-11-22T22:49:12.157Z,9.22
2023-11-22T22:51:38.925Z,9.24
2023-11-22T22:54:06.099Z,9.25
2023-11-22T22:56:32.635Z,9.28
2023-11-22T22:58:59.172Z,9.29
2023-11-22T23:01:25.734Z,9.28
2023-11-22T23:03:52.290Z,9.33
2023-11-22T23:06:26.351Z,9.42
2023-11-22T23:08:53.807Z,9.44
2023-11-22T23:11:21.684Z,9.46
2023-11-22T23:13:48.837Z,9.50
2023-11-22T23:16:15.437Z,9.53
2023-11-22T23:18:45.246Z,9.58
2023-11-22T23:21:13.279Z,9.56
2023-11-22T23:23:39.877Z,9.58
2023-11-22T23:26:06.435Z,9.61
2023-11-22T23:28:33.809Z,9.63
2023-11-22T23:31:00.798Z,9.63
2023-11-22T23:33:27.401Z,9.66
2023-11-22T23:35:54.463Z,9.71
2023-11-22T23:38:22.247Z,9.73
2023-11-22T23:40:48.958Z,9.76
2023-11-22T23:43:17.975Z,9.75
2023-11-22T23:45:45.048Z,9.81
2023-11-22T23:48:14.315Z,9.84
2023-11-22T23:50:41.247Z,9.83
2023-11-22T23:53:07.747Z,9.83
2023-11-22T23:55:34.246Z,9.90
2023-11-22T23:58:01.176Z,9.90
